Time;durP1;ratioP1;P1;durP2;ratioP2;P2;SDS_P1;SDS_P2;PMS_P1;PMS_P2;Temp;Humidity;BMP_temperature;BMP_pressure;BME280_temperature;BME280_humidity;BME280_pressure;Samples;Min_cycle;Max_cycle;Signal;HPM_P1;HPM_P2
2023/07/14 00:00:30;;;;;;;5.97;3.83;;;;;;;;;;5100908;28;20028;-64
2023/07/14 00:02:56;;;;;;;6.57;3.90;;;;;;;;;;5093395;28;20024;-62
2023/07/14 00:05:25;;;;;;;7.05;3.40;;;;;;;;;;5092959;28;20024;-63
2023/07/14 00:07:51;;;;;;;5.63;3.53;;;;;;;;;;5112107;28;20035;-62
2023/07/14 00:10:18;;;;;;;9.48;3.42;;;;;;;;;;5095153;28;20035;-63
2023/07/14 00:12:43;;;;;;;5.82;3.10;;;;;;;;;;5112040;28;20118;-63
2023/07/14 00:15:09;;;;;;;7.05;3.58;;;;;;;;;;5113255;28;20157;-62
2023/07/14 00:17:34;;;;;;;6.00;3.40;;;;;;;;;;5103573;28;20364;-63
2023/07/14 00:19:59;;;;;;;5.07;3.20;;;;;;;;;;5094652;28;20024;-62
2023/07/14 00:22:25;;;;;;;6.35;3.63;;;;;;;;;;5112336;28;20030;-62
2023/07/14 00:24:50;;;;;;;7.57;3.17;;;;;;;;;;5099783;28;20028;-63
2023/07/14 00:27:19;;;;;;;6.40;3.30;;;;;;;;;;5112193;28;20102;-63
2023/07/14 00:29:49;;;;;;;6.85;2.78;;;;;;;;;;5109739;28;20024;-63
2023/07/14 00:32:17;;;;;;;4.78;3.30;;;;;;;;;;5111588;28;20019;-62
2023/07/14 00:34:42;;;;;;;5.85;2.90;;;;;;;;;;5109579;28;20039;-63
2023/07/14 00:37:08;;;;;;;5.22;3.25;;;;;;;;;;5110592;28;20118;-63
2023/07/14 00:39:33;;;;;;;7.18;2.47;;;;;;;;;;5110824;28;20087;-63
2023/07/14 00:41:58;;;;;;;5.63;2.67;;;;;;;;;;5105853;28;20020;-63
2023/07/14 00:44:24;;;;;;;6.07;3.22;;;;;;;;;;5094460;28;20028;-62
2023/07/14 00:46:50;;;;;;;4.57;2.83;;;;;;;;;;5112189;28;20031;-63
2023/07/14 00:49:21;;;;;;;4.30;2.55;;;;;;;;;;5098033;28;20026;-63
2023/07/14 00:51:47;;;;;;;5.90;2.53;;;;;;;;;;5112371;28;20031;-63
2023/07/14 00:54:25;;;;;;;3.90;2.75;;;;;;;;;;5109931;28;20077;-63
2023/07/14 00:56:50;;;;;;;4.95;2.58;;;;;;;;;;5103679;28;20031;-62
2023/07/14 00:59:16;;;;;;;3.85;2.28;;;;;;;;;;5111307;28;20019;-63
2023/07/14 01:02:00;;;;;;;4.53;2.83;;;;;;;;;;5112261;28;20133;-63
2023/07/14 01:04:26;;;;;;;4.40;2.33;;;;;;;;;;5100054;28;20031;-63
2023/07/14 01:06:51;;;;;;;4.47;2.88;;;;;;;;;;5110580;28;20130;-63
2023/07/14 01:09:16;;;;;;;4.28;2.75;;;;;;;;;;5111652;28;20023;-63
2023/07/14 01:11:44;;;;;;;5.20;2.45;;;;;;;;;;5109534;28;20073;-63
2023/07/14 01:14:13;;;;;;;6.07;3.22;;;;;;;;;;5110784;28;20023;-62
2023/07/14 01:16:40;;;;;;;4.68;3.05;;;;;;;;;;5108366;28;20035;-62
2023/07/14 01:19:09;;;;;;;4.85;2.90;;;;;;;;;;5099694;28;20044;-63
2023/07/14 01:21:36;;;;;;;4.43;2.47;;;;;;;;;;5111826;28;20031;-63
2023/07/14 01:24:12;;;;;;;3.58;2.35;;;;;;;;;;5103089;28;20468;-63
2023/07/14 01:26:37;;;;;;;3.13;2.05;;;;;;;;;;5105710;28;20499;-63
2023/07/14 01:29:03;;;;;;;6.27;2.87;;;;;;;;;;5091871;28;20094;-63
2023/07/14 01:31:28;;;;;;;7.05;2.95;;;;;;;;;;5095838;28;20443;-63
2023/07/14 01:33:54;;;;;;;6.15;3.22;;;;;;;;;;5100098;28;20070;-63
2023/07/14 01:36:21;;;;;;;4.88;2.40;;;;;;;;;;5098979;28;20035;-63
2023/07/14 01:38:46;;;;;;;5.97;2.28;;;;;;;;;;5091514;28;20169;-63
2023/07/14 01:41:12;;;;;;;3.75;2.28;;;;;;;;;;5101104;28;20593;-64
2023/07/14 01:43:39;;;;;;;4.25;2.53;;;;;;;;;;5092590;28;20027;-63
2023/07/14 01:46:07;;;;;;;6.13;2.80;;;;;;;;;;5094608;28;20484;-63
2023/07/14 01:48:34;;;;;;;4.82;2.80;;;;;;;;;;5101284;28;20027;-63
2023/07/14 01:51:04;;;;;;;4.63;2.85;;;;;;;;;;5104853;28;20043;-63
2023/07/14 01:53:34;;;;;;;3.85;2.22;;;;;;;;;;5111123;28;20027;-63
2023/07/14 01:56:01;;;;;;;7.53;2.83;;;;;;;;;;5104413;28;20181;-63
2023/07/14 01:58:32;;;;;;;7.00;3.35;;;;;;;;;;5095037;28;20051;-63
2023/07/14 02:00:58;;;;;;;6.82;2.28;;;;;;;;;;5095789;28;20023;-63
2023/07/14 02:03:29;;;;;;;5.15;3.08;;;;;;;;;;5104328;28;20023;-63
2023/07/14 02:05:54;;;;;;;5.55;2.97;;;;;;;;;;5099524;28;20024;-63
2023/07/14 02:08:23;;;;;;;5.40;3.13;;;;;;;;;;5078036;28;20024;-63
2023/07/14 02:10:48;;;;;;;9.68;2.58;;;;;;;;;;5099389;28;20027;-62
2023/07/14 02:13:13;;;;;;;4.97;2.85;;;;;;;;;;5109672;28;20024;-61
2023/07/14 02:15:38;;;;;;;5.95;3.20;;;;;;;;;;5092064;28;20496;-63
2023/07/14 02:18:04;;;;;;;5.17;2.70;;;;;;;;;;5103667;28;20089;-63
2023/07/14 02:20:37;;;;;;;7.80;3.35;;;;;;;;;;5104307;28;20270;-63
2023/07/14 02:23:04;;;;;;;5.07;3.33;;;;;;;;;;5101395;28;20027;-63
2023/07/14 02:25:32;;;;;;;5.05;2.85;;;;;;;;;;5092680;28;20036;-63
2023/07/14 02:27:57;;;;;;;5.22;3.10;;;;;;;;;;5109908;28;20020;-63
2023/07/14 02:30:25;;;;;;;5.80;2.73;;;;;;;;;;5113670;28;20535;-63
2023/07/14 02:32:53;;;;;;;6.25;3.28;;;;;;;;;;5105959;28;20747;-63
2023/07/14 02:35:24;;;;;;;9.88;2.97;;;;;;;;;;5114364;28;20039;-63
2023/07/14 02:38:05;;;;;;;5.20;3.45;;;;;;;;;;5114079;28;20028;-63
2023/07/14 02:40:34;;;;;;;4.38;2.90;;;;;;;;;;5104937;28;20035;-63
2023/07/14 02:43:02;;;;;;;5.93;3.40;;;;;;;;;;5096403;28;20035;-63
2023/07/14 02:45:28;;;;;;;5.15;3.15;;;;;;;;;;5114862;28;20028;-62
2023/07/14 02:47:56;;;;;;;8.57;3.17;;;;;;;;;;5103728;28;20035;-62
2023/07/14 02:50:21;;;;;;;4.55;2.97;;;;;;;;;;5104945;28;20102;-62
2023/07/14 02:52:47;;;;;;;4.90;3.35;;;;;;;;;;5107441;28;20119;-62
2023/07/14 02:55:12;;;;;;;6.38;4.00;;;;;;;;;;5114354;28;20351;-62
2023/07/14 02:57:37;;;;;;;4.65;3.42;;;;;;;;;;5114535;28;20041;-62
2023/07/14 03:00:07;;;;;;;5.70;3.50;;;;;;;;;;5100530;28;20024;-62
2023/07/14 03:02:32;;;;;;;7.28;4.20;;;;;;;;;;5112870;28;20866;-62
2023/07/14 03:04:57;;;;;;;6.30;3.90;;;;;;;;;;5099271;28;20114;-62
2023/07/14 03:07:23;;;;;;;5.40;3.45;;;;;;;;;;5102565;28;20035;-62
2023/07/14 03:09:48;;;;;;;17.20;3.47;;;;;;;;;;5101890;28;20034;-62
2023/07/14 03:12:13;;;;;;;7.10;3.87;;;;;;;;;;5109730;28;20030;-62
2023/07/14 03:14:38;;;;;;;6.20;3.85;;;;;;;;;;5102586;28;20284;-62
2023/07/14 03:17:04;;;;;;;4.37;3.37;;;;;;;;;;5113049;28;20111;-62
2023/07/14 03:19:29;;;;;;;10.07;3.30;;;;;;;;;;5113430;28;20320;-62
2023/07/14 03:21:54;;;;;;;6.55;3.88;;;;;;;;;;5113808;28;20323;-62
2023/07/14 03:24:19;;;;;;;9.20;4.27;;;;;;;;;;5092102;28;20016;-62
2023/07/14 03:26:44;;;;;;;5.43;3.58;;;;;;;;;;5114196;28;20281;-62
2023/07/14 03:29:10;;;;;;;11.10;4.23;;;;;;;;;;5108550;28;20374;-62
2023/07/14 03:31:35;;;;;;;7.50;4.40;;;;;;;;;;5114419;28;20632;-62
2023/07/14 03:34:00;;;;;;;7.60;4.07;;;;;;;;;;5095995;28;20266;-62
2023/07/14 03:36:25;;;;;;;9.20;4.30;;;;;;;;;;5093427;28;20301;-62
2023/07/14 03:39:09;;;;;;;5.80;4.23;;;;;;;;;;5097600;28;20284;-62
2023/07/14 03:41:34;;;;;;;6.90;4.17;;;;;;;;;;5111278;28;20304;-62
2023/07/14 03:44:00;;;;;;;7.10;4.30;;;;;;;;;;5095243;28;20804;-62
2023/07/14 03:46:25;;;;;;;8.30;4.70;;;;;;;;;;5098303;28;20028;-63
2023/07/14 03:48:50;;;;;;;6.33;3.50;;;;;;;;;;5113306;28;20277;-62
2023/07/14 03:51:15;;;;;;;6.33;3.77;;;;;;;;;;5101011;28;20353;-63
2023/07/14 03:53:41;;;;;;;6.33;4.07;;;;;;;;;;5108083;28;20270;-63
2023/07/14 03:56:06;;;;;;;8.38;4.10;;;;;;;;;;5097192;28;20282;-62
2023/07/14 03:58:31;;;;;;;5.93;4.30;;;;;;;;;;5096819;28;20074;-63
2023/07/14 04:01:00;;;;;;;10.48;4.50;;;;;;;;;;5094257;28;20370;-63
2023/07/14 04:03:25;;;;;;;6.32;4.18;;;;;;;;;;5095979;28;20032;-62
2023/07/14 04:05:50;;;;;;;8.23;4.18;;;;;;;;;;5094593;28;20035;-62
2023/07/14 04:08:16;;;;;;;14.20;4.97;;;;;;;;;;5101031;28;20450;-62
2023/07/14 04:10:41;;;;;;;5.90;4.45;;;;;;;;;;5102224;28;20081;-62
2023/07/14 04:13:06;;;;;;;7.70;4.57;;;;;;;;;;5095879;28;20098;-62
2023/07/14 04:15:31;;;;;;;7.25;4.35;;;;;;;;;;5096374;28;20357;-62
2023/07/14 04:17:56;;;;;;;8.93;4.77;;;;;;;;;;5097906;28;20359;-62
2023/07/14 04:20:22;;;;;;;5.40;3.92;;;;;;;;;;5107515;28;20315;-66
2023/07/14 04:22:47;;;;;;;6.25;4.88;;;;;;;;;;5109742;28;20019;-63
2023/07/14 04:25:12;;;;;;;7.45;4.80;;;;;;;;;;5106996;28;20408;-62
2023/07/14 04:27:38;;;;;;;9.15;4.35;;;;;;;;;;5100275;28;20138;-63
2023/07/14 04:30:04;;;;;;;14.10;4.68;;;;;;;;;;5103938;28;20077;-63
2023/07/14 04:32:29;;;;;;;7.55;4.05;;;;;;;;;;5103438;28;20127;-62
2023/07/14 04:34:55;;;;;;;7.78;5.00;;;;;;;;;;5099817;28;20502;-62
2023/07/14 04:37:20;;;;;;;13.13;4.55;;;;;;;;;;5106317;28;20027;-63
2023/07/14 04:39:45;;;;;;;5.35;3.65;;;;;;;;;;5105607;28;20059;-62
2023/07/14 04:42:11;;;;;;;6.07;4.03;;;;;;;;;;5099055;28;20490;-62
2023/07/14 04:44:37;;;;;;;4.80;3.65;;;;;;;;;;5110694;28;20028;-63
2023/07/14 04:47:02;;;;;;;6.63;3.97;;;;;;;;;;5111837;28;20028;-62
2023/07/14 04:49:28;;;;;;;8.93;4.03;;;;;;;;;;5098322;28;20542;-62
2023/07/14 04:51:53;;;;;;;7.75;4.00;;;;;;;;;;5098862;28;20047;-62
2023/07/14 04:54:19;;;;;;;8.25;4.68;;;;;;;;;;5110671;28;20016;-62
2023/07/14 04:56:45;;;;;;;12.10;4.60;;;;;;;;;;5110688;28;20035;-62
2023/07/14 04:59:10;;;;;;;8.30;4.88;;;;;;;;;;5109379;28;20377;-62
2023/07/14 05:01:36;;;;;;;7.53;4.85;;;;;;;;;;5106693;28;20032;-62
2023/07/14 05:04:01;;;;;;;9.85;5.22;;;;;;;;;;5098182;28;20027;-61
2023/07/14 05:06:26;;;;;;;13.43;5.38;;;;;;;;;;5109415;28;20028;-62
2023/07/14 05:08:52;;;;;;;7.78;4.57;;;;;;;;;;5104918;28;20024;-62
2023/07/14 05:11:17;;;;;;;9.07;5.00;;;;;;;;;;5105281;28;20023;-62
2023/07/14 05:13:42;;;;;;;8.02;4.65;;;;;;;;;;5100360;28;20121;-62
2023/07/14 05:16:08;;;;;;;11.57;4.32;;;;;;;;;;5105023;28;20036;-62
2023/07/14 05:18:33;;;;;;;9.63;4.85;;;;;;;;;;5097298;28;20081;-62
2023/07/14 05:20:59;;;;;;;6.70;4.47;;;;;;;;;;5103428;28;20031;-62
2023/07/14 05:23:26;;;;;;;9.00;4.60;;;;;;;;;;5102892;28;20027;-62
2023/07/14 05:25:52;;;;;;;8.85;4.35;;;;;;;;;;5103892;28;20099;-62
2023/07/14 05:28:17;;;;;;;9.65;4.65;;;;;;;;;;5097751;28;20123;-62
2023/07/14 05:30:43;;;;;;;10.10;4.77;;;;;;;;;;5103160;28;20490;-62
2023/07/14 05:33:09;;;;;;;7.45;4.25;;;;;;;;;;5103982;28;20265;-62
2023/07/14 05:35:35;;;;;;;10.88;4.25;;;;;;;;;;5096853;28;20466;-62
2023/07/14 05:38:00;;;;;;;7.25;4.43;;;;;;;;;;5106959;28;20020;-62
2023/07/14 05:40:25;;;;;;;8.47;4.33;;;;;;;;;;5104513;28;20031;-62
2023/07/14 05:42:50;;;;;;;9.43;3.70;;;;;;;;;;5097127;28;20278;-62
2023/07/14 05:45:16;;;;;;;8.25;4.30;;;;;;;;;;5101807;28;20299;-62
2023/07/14 05:47:43;;;;;;;6.45;3.60;;;;;;;;;;5105404;28;20587;-62
2023/07/14 05:50:08;;;;;;;8.32;4.38;;;;;;;;;;5108311;28;20027;-62
2023/07/14 05:52:34;;;;;;;8.00;3.42;;;;;;;;;;5091474;28;20046;-62
2023/07/14 05:54:59;;;;;;;8.25;3.60;;;;;;;;;;5092077;28;20016;-62
2023/07/14 05:57:24;;;;;;;9.02;4.32;;;;;;;;;;5091211;28;20034;-62
2023/07/14 05:59:49;;;;;;;5.75;3.63;;;;;;;;;;5093859;28;20027;-62
2023/07/14 06:02:15;;;;;;;10.52;3.75;;;;;;;;;;5093301;28;20028;-62
2023/07/14 06:04:40;;;;;;;6.57;3.88;;;;;;;;;;5104897;28;20027;-62
2023/07/14 06:07:06;;;;;;;7.93;3.80;;;;;;;;;;5092506;28;20034;-62
2023/07/14 06:09:33;;;;;;;9.15;3.80;;;;;;;;;;5105925;28;20102;-62
2023/07/14 06:11:59;;;;;;;8.80;3.85;;;;;;;;;;5093108;28;20023;-62
2023/07/14 06:14:24;;;;;;;5.37;3.27;;;;;;;;;;5094062;28;20462;-62
2023/07/14 06:16:49;;;;;;;5.47;3.15;;;;;;;;;;5101928;28;20297;-63
2023/07/14 06:19:14;;;;;;;10.47;4.67;;;;;;;;;;5109591;28;20023;-62
2023/07/14 06:21:40;;;;;;;10.67;3.20;;;;;;;;;;5093746;28;20818;-63
2023/07/14 06:24:07;;;;;;;6.27;3.30;;;;;;;;;;5095002;28;20601;-63
2023/07/14 06:26:32;;;;;;;8.00;4.10;;;;;;;;;;5090948;28;20426;-62
2023/07/14 06:28:58;;;;;;;16.90;4.03;;;;;;;;;;5094537;28;20130;-63
2023/07/14 06:31:23;;;;;;;9.97;3.33;;;;;;;;;;5093114;28;20487;-62
2023/07/14 06:33:48;;;;;;;5.23;2.97;;;;;;;;;;5093444;28;20645;-62
2023/07/14 06:36:13;;;;;;;6.80;3.30;;;;;;;;;;5091977;28;20336;-62
2023/07/14 06:38:39;;;;;;;7.72;3.35;;;;;;;;;;5104276;28;20528;-62
2023/07/14 06:41:07;;;;;;;8.10;3.15;;;;;;;;;;5092522;28;20020;-63
2023/07/14 06:43:32;;;;;;;8.50;3.60;;;;;;;;;;5095200;28;20110;-63
2023/07/14 06:45:58;;;;;;;6.18;2.70;;;;;;;;;;5090783;28;20135;-63
2023/07/14 06:48:24;;;;;;;10.02;3.47;;;;;;;;;;5090086;28;20048;-62
2023/07/14 06:50:50;;;;;;;7.30;2.85;;;;;;;;;;5090263;28;20055;-63
2023/07/14 06:53:16;;;;;;;9.55;3.38;;;;;;;;;;5106253;28;20031;-62
2023/07/14 06:55:43;;;;;;;8.40;3.38;;;;;;;;;;5110525;28;20023;-62
2023/07/14 06:58:08;;;;;;;11.23;3.20;;;;;;;;;;5104334;28;20394;-63
2023/07/14 07:00:33;;;;;;;7.57;3.20;;;;;;;;;;5091210;28;20024;-63
2023/07/14 07:02:59;;;;;;;8.60;3.55;;;;;;;;;;5096265;28;20768;-63
2023/07/14 07:05:24;;;;;;;6.88;3.17;;;;;;;;;;5109335;28;20423;-62
2023/07/14 07:07:50;;;;;;;6.90;3.80;;;;;;;;;;5106498;28;20043;-62
2023/07/14 07:10:15;;;;;;;8.90;3.65;;;;;;;;;;5101734;28;20274;-63
2023/07/14 07:12:41;;;;;;;8.10;3.13;;;;;;;;;;5099820;28;20049;-62
2023/07/14 07:15:06;;;;;;;7.60;3.47;;;;;;;;;;5092515;28;20382;-62
2023/07/14 07:17:32;;;;;;;8.02;3.30;;;;;;;;;;5099949;28;20070;-62
2023/07/14 07:19:57;;;;;;;5.77;2.93;;;;;;;;;;5104369;28;20485;-62
2023/07/14 07:22:22;;;;;;;7.27;4.03;;;;;;;;;;5105772;28;20360;-62
2023/07/14 07:24:47;;;;;;;7.00;3.73;;;;;;;;;;5105821;28;20289;-62
2023/07/14 07:27:12;;;;;;;9.83;3.13;;;;;;;;;;5107952;28;20268;-63
2023/07/14 07:29:42;;;;;;;5.95;2.97;;;;;;;;;;5104954;28;20269;-63
2023/07/14 07:32:07;;;;;;;6.07;3.05;;;;;;;;;;5108617;28;20019;-62
2023/07/14 07:34:32;;;;;;;5.30;2.95;;;;;;;;;;5109090;28;20086;-62
2023/07/14 07:36:58;;;;;;;5.57;2.73;;;;;;;;;;5108940;28;20437;-62
2023/07/14 07:39:23;;;;;;;8.70;2.77;;;;;;;;;;5112386;28;20285;-62
2023/07/14 07:41:48;;;;;;;4.13;2.60;;;;;;;;;;5105219;28;20303;-63
2023/07/14 07:44:13;;;;;;;6.60;3.17;;;;;;;;;;5090981;28;20099;-63
2023/07/14 07:46:39;;;;;;;4.10;2.43;;;;;;;;;;5102677;28;20274;-63
2023/07/14 07:49:04;;;;;;;4.90;2.78;;;;;;;;;;5110815;28;20334;-63
2023/07/14 07:51:30;;;;;;;5.10;2.80;;;;;;;;;;5100753;28;20035;-62
2023/07/14 07:53:55;;;;;;;5.95;3.13;;;;;;;;;;5098802;28;20285;-62
2023/07/14 07:56:21;;;;;;;7.47;2.67;;;;;;;;;;5104858;28;20028;-63
2023/07/14 07:58:46;;;;;;;5.25;2.90;;;;;;;;;;5099686;28;20027;-62
2023/07/14 08:01:21;;;;;;;5.65;2.92;;;;;;;;;;5099947;28;20020;-62
2023/07/14 08:03:47;;;;;;;8.32;3.17;;;;;;;;;;5100355;28;20540;-62
2023/07/14 08:06:12;;;;;;;7.03;3.15;;;;;;;;;;5101753;28;20119;-63
2023/07/14 08:08:38;;;;;;;5.05;2.63;;;;;;;;;;5099575;28;20012;-62
2023/07/14 08:11:07;;;;;;;6.57;2.90;;;;;;;;;;5107500;28;20021;-63
2023/07/14 08:13:32;;;;;;;9.68;3.13;;;;;;;;;;5106620;28;20023;-63
2023/07/14 08:15:57;;;;;;;6.00;2.80;;;;;;;;;;5112236;28;20065;-63
2023/07/14 08:18:23;;;;;;;4.50;2.72;;;;;;;;;;5098896;28;20293;-62
2023/07/14 08:20:49;;;;;;;4.85;2.42;;;;;;;;;;5104644;28;20104;-62
2023/07/14 08:23:15;;;;;;;8.20;3.08;;;;;;;;;;5099615;28;20019;-62
2023/07/14 08:25:41;;;;;;;4.65;2.42;;;;;;;;;;5103766;28;20370;-63
2023/07/14 08:28:06;;;;;;;6.47;2.95;;;;;;;;;;5104193;28;20073;-62
2023/07/14 08:30:31;;;;;;;5.38;2.30;;;;;;;;;;5111890;28;20126;-63
2023/07/14 08:32:57;;;;;;;5.93;2.40;;;;;;;;;;5107652;28;20086;-63
2023/07/14 08:35:23;;;;;;;4.70;2.80;;;;;;;;;;5105234;28;20020;-62
2023/07/14 08:37:48;;;;;;;7.25;2.90;;;;;;;;;;5111174;28;20031;-64
2023/07/14 08:40:15;;;;;;;4.30;3.13;;;;;;;;;;5110614;28;20027;-63
2023/07/14 08:42:46;;;;;;;7.10;2.88;;;;;;;;;;5099627;28;20478;-63
2023/07/14 08:45:26;;;;;;;5.75;2.75;;;;;;;;;;5105502;28;20482;-63
2023/07/14 08:47:52;;;;;;;7.30;3.30;;;;;;;;;;5105390;28;20028;-63
2023/07/14 08:50:20;;;;;;;4.47;2.30;;;;;;;;;;5093548;28;20079;-62
2023/07/14 08:52:45;;;;;;;5.95;2.45;;;;;;;;;;5103562;28;20066;-63
2023/07/14 08:55:37;;;;;;;4.07;2.08;;;;;;;;;;5095862;28;20043;-62
2023/07/14 08:58:02;;;;;;;6.45;2.45;;;;;;;;;;5090198;28;20399;-62
2023/07/14 09:00:30;;;;;;;3.63;2.13;;;;;;;;;;5093363;28;20054;-62
2023/07/14 09:02:56;;;;;;;6.45;2.70;;;;;;;;;;5100028;28;20024;-63
2023/07/14 09:05:26;;;;;;;4.63;2.65;;;;;;;;;;5095615;28;20020;-63
2023/07/14 09:07:51;;;;;;;5.13;2.47;;;;;;;;;;5102894;28;20068;-63
2023/07/14 09:10:17;;;;;;;5.45;2.30;;;;;;;;;;5111456;28;20031;-63
2023/07/14 09:12:42;;;;;;;6.68;2.55;;;;;;;;;;5099254;28;20455;-62
2023/07/14 09:15:09;;;;;;;5.27;2.50;;;;;;;;;;5104970;28;20051;-63
2023/07/14 09:17:42;;;;;;;6.03;2.10;;;;;;;;;;5104538;28;20028;-63
2023/07/14 09:20:16;;;;;;;6.50;2.65;;;;;;;;;;5098440;28;20081;-63
2023/07/14 09:22:42;;;;;;;4.30;2.55;;;;;;;;;;5105538;28;20034;-63
2023/07/14 09:25:25;;;;;;;5.67;2.57;;;;;;;;;;5100010;28;20417;-63
2023/07/14 09:27:51;;;;;;;3.40;2.07;;;;;;;;;;5097306;28;20274;-63
2023/07/14 09:30:21;;;;;;;6.00;2.20;;;;;;;;;;5104696;28;20069;-62
2023/07/14 09:32:51;;;;;;;5.95;2.67;;;;;;;;;;5096494;28;20032;-63
2023/07/14 09:35:18;;;;;;;3.22;1.75;;;;;;;;;;5097778;28;20030;-64
2023/07/14 09:37:53;;;;;;;6.82;2.85;;;;;;;;;;5109989;28;20084;-63
2023/07/14 09:40:23;;;;;;;5.30;2.40;;;;;;;;;;5104597;28;20383;-63
2023/07/14 09:42:52;;;;;;;4.32;1.92;;;;;;;;;;5097779;28;20016;-63
2023/07/14 09:45:19;;;;;;;3.63;1.92;;;;;;;;;;5101892;28;20027;-64
2023/07/14 09:47:46;;;;;;;5.03;2.20;;;;;;;;;;5105027;28;20027;-63
2023/07/14 09:50:16;;;;;;;8.18;2.25;;;;;;;;;;5109125;28;20019;-63
2023/07/14 09:52:48;;;;;;;4.38;1.80;;;;;;;;;;5110777;28;20020;-63
2023/07/14 09:55:14;;;;;;;7.13;2.67;;;;;;;;;;5110692;28;20011;-64
2023/07/14 09:57:41;;;;;;;4.63;2.20;;;;;;;;;;5101384;28;20359;-64
2023/07/14 10:00:22;;;;;;;3.50;2.03;;;;;;;;;;5096654;28;20391;-63
2023/07/14 10:02:56;;;;;;;7.20;2.25;;;;;;;;;;5099379;28;20031;-64
2023/07/14 10:05:22;;;;;;;;;;;;;;;;;;5104867;28;20094;-64
2023/07/14 10:07:47;;;;;;;5.35;2.70;;;;;;;;;;5108856;28;20019;-64
2023/07/14 10:10:14;;;;;;;4.70;2.20;;;;;;;;;;5091520;28;20027;-64
2023/07/14 10:12:47;;;;;;;8.93;2.53;;;;;;;;;;5095393;28;20038;-64
2023/07/14 10:15:32;;;;;;;10.63;2.65;;;;;;;;;;5096940;28;20024;-63
2023/07/14 10:18:05;;;;;;;5.30;2.38;;;;;;;;;;5105711;28;20086;-63
2023/07/14 10:20:32;;;;;;;3.97;2.15;;;;;;;;;;5109382;28;20027;-64
2023/07/14 10:22:58;;;;;;;5.85;2.13;;;;;;;;;;5095586;28;20021;-63
2023/07/14 10:25:24;;;;;;;12.20;2.45;;;;;;;;;;5101172;28;20023;-64
2023/07/14 10:28:10;;;;;;;5.88;2.30;;;;;;;;;;5102667;28;20031;-64
2023/07/14 10:30:55;;;;;;;7.43;3.30;;;;;;;;;;5094035;28;20017;-65
2023/07/14 10:33:31;;;;;;;6.07;2.40;;;;;;;;;;5096132;28;20088;-64
2023/07/14 10:36:07;;;;;;;5.68;2.92;;;;;;;;;;5093584;28;20032;-63
2023/07/14 10:38:35;;;;;;;6.22;2.63;;;;;;;;;;5096863;28;20043;-64
2023/07/14 10:41:05;;;;;;;4.00;2.10;;;;;;;;;;5093811;28;20112;-64
2023/07/14 10:43:33;;;;;;;4.43;2.20;;;;;;;;;;5109065;28;20039;-64
2023/07/14 10:46:00;;;;;;;4.63;2.30;;;;;;;;;;5101943;28;20040;-64
2023/07/14 10:48:29;;;;;;;6.72;2.60;;;;;;;;;;5100233;28;20024;-64
2023/07/14 10:50:57;;;;;;;5.25;2.60;;;;;;;;;;5097661;28;20454;-64
2023/07/14 10:53:28;;;;;;;5.18;2.35;;;;;;;;;;5110828;28;20023;-64
2023/07/14 10:55:56;;;;;;;4.30;2.28;;;;;;;;;;5112987;28;20020;-65
2023/07/14 10:58:30;;;;;;;8.50;2.80;;;;;;;;;;5098931;28;20070;-64
2023/07/14 11:00:55;;;;;;;;;;;;;;;;;;5109332;28;20449;-65
2023/07/14 11:03:39;;;;;;;8.60;3.67;;;;;;;;;;5104282;28;19954;-64
2023/07/14 11:06:18;;;;;;;6.97;3.30;;;;;;;;;;5105848;28;20428;-65
2023/07/14 11:08:46;;;;;;;7.57;3.67;;;;;;;;;;5111217;28;20036;-65
2023/07/14 11:11:17;;;;;;;5.28;2.83;;;;;;;;;;5101543;28;20078;-64
2023/07/14 11:14:11;;;;;;;6.68;3.10;;;;;;;;;;5103621;28;20053;-64
2023/07/14 11:17:02;;;;;;;10.15;2.88;;;;;;;;;;5023123;28;20505;-65
2023/07/14 11:19:28;;;;;;;5.05;3.03;;;;;;;;;;5106735;28;20032;-64
2023/07/14 11:22:00;;;;;;;8.33;3.50;;;;;;;;;;5108972;28;20020;-64
2023/07/14 11:24:37;;;;;;;9.82;3.40;;;;;;;;;;5104549;28;20266;-64
2023/07/14 11:27:02;;;;;;;7.20;3.08;;;;;;;;;;5101892;28;20020;-64
2023/07/14 11:29:32;;;;;;;5.17;2.90;;;;;;;;;;5107985;28;20123;-64
2023/07/14 11:31:59;;;;;;;4.50;2.58;;;;;;;;;;5109111;28;20432;-65
2023/07/14 11:34:40;;;;;;;4.63;2.28;;;;;;;;;;5103614;28;20031;-65
2023/07/14 11:37:17;;;;;;;3.88;2.40;;;;;;;;;;5106917;28;20063;-66
2023/07/14 11:39:42;;;;;;;5.13;2.65;;;;;;;;;;5107401;28;20103;-65
2023/07/14 11:42:24;;;;;;;3.83;2.53;;;;;;;;;;5097160;28;20104;-65
2023/07/14 11:44:50;;;;;;;5.93;2.60;;;;;;;;;;5110393;28;20524;-65
2023/07/14 11:47:19;;;;;;;4.20;2.55;;;;;;;;;;5108716;28;20023;-66
2023/07/14 11:49:44;;;;;;;4.95;2.53;;;;;;;;;;5109252;28;20032;-66
2023/07/14 11:52:20;;;;;;;4.47;2.80;;;;;;;;;;5093759;28;20039;-65
2023/07/14 11:54:51;;;;;;;5.38;3.00;;;;;;;;;;5094381;28;20023;-66
2023/07/14 11:57:17;;;;;;;5.45;2.72;;;;;;;;;;5093653;28;20032;-66
2023/07/14 12:00:18;;;;;;;6.82;2.90;;;;;;;;;;5094886;28;20114;-66
2023/07/14 12:02:47;;;;;;;5.32;3.50;;;;;;;;;;5009462;28;20464;-67
2023/07/14 12:05:15;;;;;;;8.25;3.05;;;;;;;;;;5085075;28;20379;-65
2023/07/14 12:07:59;;;;;;;7.57;2.88;;;;;;;;;;5112287;28;20059;-65
2023/07/14 12:10:40;;;;;;;5.47;2.88;;;;;;;;;;5100140;28;20055;-63
2023/07/14 12:13:27;;;;;;;4.22;2.60;;;;;;;;;;5112033;28;20024;-63
2023/07/14 12:15:58;;;;;;;5.47;2.80;;;;;;;;;;5105253;28;20027;-64
2023/07/14 12:18:26;;;;;;;5.22;2.83;;;;;;;;;;5107679;28;20103;-72
2023/07/14 12:21:12;;;;;;;5.97;2.72;;;;;;;;;;5093292;28;20028;-64
2023/07/14 12:23:37;;;;;;;6.30;3.50;;;;;;;;;;5107767;28;20121;-66
2023/07/14 12:26:08;;;;;;;5.90;3.17;;;;;;;;;;5112857;28;20055;-67
2023/07/14 12:28:36;;;;;;;8.77;2.97;;;;;;;;;;5110489;28;20286;-65
2023/07/14 12:31:03;;;;;;;5.05;3.10;;;;;;;;;;5112292;28;20385;-65
2023/07/14 12:33:28;;;;;;;6.47;3.08;;;;;;;;;;5109574;28;20102;-64
2023/07/14 12:35:54;;;;;;;6.15;3.17;;;;;;;;;;5111176;28;20157;-66
2023/07/14 12:38:21;;;;;;;7.30;2.80;;;;;;;;;;5106749;28;20036;-64
2023/07/14 12:40:48;;;;;;;7.40;3.05;;;;;;;;;;5102478;28;20012;-64
2023/07/14 12:43:25;;;;;;;6.32;3.03;;;;;;;;;;5092811;28;20077;-64
2023/07/14 12:45:51;;;;;;;6.07;3.38;;;;;;;;;;5092815;28;20020;-65
2023/07/14 12:48:17;;;;;;;4.88;3.20;;;;;;;;;;5092504;28;20028;-67
2023/07/14 12:50:43;;;;;;;5.10;2.72;;;;;;;;;;5094802;28;20123;-66
2023/07/14 12:53:12;;;;;;;7.43;3.10;;;;;;;;;;5103947;28;20509;-66
2023/07/14 12:55:38;;;;;;;4.93;3.08;;;;;;;;;;5106031;28;20031;-65
2023/07/14 12:58:10;;;;;;;9.03;2.63;;;;;;;;;;5106787;28;20032;-64
2023/07/14 13:00:37;;;;;;;7.85;3.22;;;;;;;;;;5109564;28;20023;-69
2023/07/14 13:03:08;;;;;;;5.75;2.83;;;;;;;;;;5108597;28;20084;-66
2023/07/14 13:05:35;;;;;;;6.25;3.47;;;;;;;;;;5106318;28;20081;-64
2023/07/14 13:08:03;;;;;;;10.45;3.08;;;;;;;;;;5099577;28;20015;-65
2023/07/14 13:10:39;;;;;;;9.25;3.33;;;;;;;;;;5099881;28;20015;-66
2023/07/14 13:13:05;;;;;;;5.63;3.10;;;;;;;;;;5107640;28;20076;-66
2023/07/14 13:15:34;;;;;;;5.88;3.10;;;;;;;;;;5101369;28;20028;-66
2023/07/14 13:18:14;;;;;;;7.80;2.90;;;;;;;;;;5104911;28;20031;-65
2023/07/14 13:20:41;;;;;;;6.03;3.05;;;;;;;;;;5098747;28;20028;-63
2023/07/14 13:23:09;;;;;;;21.88;3.28;;;;;;;;;;5107394;28;20043;-62
2023/07/14 13:25:41;;;;;;;6.97;2.38;;;;;;;;;;5108634;28;20473;-64
2023/07/14 13:28:25;;;;;;;6.57;3.08;;;;;;;;;;5103714;28;20160;-65
2023/07/14 13:30:50;;;;;;;5.88;3.60;;;;;;;;;;5107926;28;20028;-64
2023/07/14 13:33:15;;;;;;;4.73;2.87;;;;;;;;;;5095254;28;20432;-64
2023/07/14 13:35:52;;;;;;;7.80;3.42;;;;;;;;;;5103004;28;20051;-65
2023/07/14 13:38:17;;;;;;;5.38;3.00;;;;;;;;;;5092485;28;20494;-65
2023/07/14 13:40:43;;;;;;;5.70;2.77;;;;;;;;;;5106182;28;20024;-64
2023/07/14 13:43:16;;;;;;;7.95;2.97;;;;;;;;;;5094657;28;20535;-66
2023/07/14 13:45:42;;;;;;;4.75;3.08;;;;;;;;;;5090798;28;20058;-65
2023/07/14 13:48:26;;;;;;;7.22;3.22;;;;;;;;;;5104429;28;20070;-66
2023/07/14 13:50:52;;;;;;;5.20;2.72;;;;;;;;;;5096399;28;20028;-66
2023/07/14 13:53:17;;;;;;;4.45;2.65;;;;;;;;;;5086137;28;20490;-66
2023/07/14 13:55:42;;;;;;;4.78;2.95;;;;;;;;;;5091299;28;20406;-66
2023/07/14 13:58:11;;;;;;;8.47;2.93;;;;;;;;;;5106986;28;20107;-63
2023/07/14 14:00:36;;;;;;;5.90;3.55;;;;;;;;;;5108393;28;20031;-65
2023/07/14 14:03:04;;;;;;;4.17;2.30;;;;;;;;;;5097387;28;20024;-64
2023/07/14 14:05:39;;;;;;;6.10;2.75;;;;;;;;;;5092829;28;20289;-64
2023/07/14 14:08:05;;;;;;;4.90;2.70;;;;;;;;;;5102036;28;20028;-64
2023/07/14 14:10:30;;;;;;;5.80;2.72;;;;;;;;;;5079407;28;20449;-64
2023/07/14 14:12:57;;;;;;;8.90;3.50;;;;;;;;;;5097363;28;20106;-65
2023/07/14 14:15:26;;;;;;;4.43;2.22;;;;;;;;;;5099732;28;20028;-65
2023/07/14 14:17:54;;;;;;;5.65;2.47;;;;;;;;;;5101765;28;20137;-64
2023/07/14 14:20:20;;;;;;;9.57;2.78;;;;;;;;;;5104442;28;20028;-64
2023/07/14 14:22:46;;;;;;;4.38;2.50;;;;;;;;;;5106957;28;20047;-64
2023/07/14 14:25:12;;;;;;;7.25;2.75;;;;;;;;;;5104507;28;20512;-64
2023/07/14 14:27:39;;;;;;;6.03;2.77;;;;;;;;;;5106525;28;20024;-64
2023/07/14 14:30:04;;;;;;;3.92;2.30;;;;;;;;;;5108119;28;20269;-65
2023/07/14 14:32:32;;;;;;;8.57;2.72;;;;;;;;;;5104603;28;20128;-65
2023/07/14 14:34:58;;;;;;;6.03;2.88;;;;;;;;;;5108049;28;20513;-67
2023/07/14 14:37:23;;;;;;;6.90;2.85;;;;;;;;;;5104182;28;20068;-65
2023/07/14 14:39:49;;;;;;;7.72;2.58;;;;;;;;;;5101576;28;20054;-65
2023/07/14 14:42:15;;;;;;;5.53;2.80;;;;;;;;;;5097880;28;20020;-65
2023/07/14 14:44:41;;;;;;;5.35;2.42;;;;;;;;;;5094667;28;20357;-64
2023/07/14 14:47:12;;;;;;;7.82;2.60;;;;;;;;;;5103844;28;20103;-66